| time (UTC) | temp C | wind direction | speed KPH | gust KPH | rain 1hr cm | rain 24hr cm | rain mn cm | humidity % | barometer mb |
| 20260906201538 | 38 | 275 | 1.6 | 11.3 | 0.00 | 0.00 | 0.00 | 33 | 1009.6 |
| 20260906200033 | 38 | 127 | 4.8 | 16.1 | 0.00 | 0.00 | 0.00 | 32 | 1010.0 |
| 20260906194532 | 38 | 238 | 1.6 | 12.9 | 0.00 | 0.00 | 0.00 | 33 | 1010.1 |
| 20260906193027 | 37 | 167 | 6.4 | 17.7 | 0.00 | 0.00 | 0.00 | 34 | 1010.4 |
| 20260906191530 | 37 | 162 | 9.7 | 20.9 | 0.00 | 0.00 | 0.00 | 35 | 1010.5 |
| 20260906190026 | 37 | 71 | 3.2 | 17.7 | 0.00 | 0.00 | 0.00 | 33 | 1010.7 |
| 20260906184526 | 37 | 222 | 9.7 | 17.7 | 0.00 | 0.00 | 0.00 | 35 | 1010.9 |
| 20260906183024 | 37 | 125 | 4.8 | 9.7 | 0.00 | 0.00 | 0.00 | 37 | 1011.0 |
| 20260906181523 | 37 | 243 | 4.8 | 12.9 | 0.00 | 0.00 | 0.00 | 37 | 1011.4 |
| 20260906180035 | 37 | 240 | 0.0 | 14.5 | 0.00 | 0.00 | 0.00 | 39 | 1011.8 |
| 20260906174518 | 36 | 133 | 1.6 | 11.3 | 0.00 | 0.00 | 0.00 | 40 | 1012.0 |
| 20260906173117 | 36 | 67 | 9.7 | 14.5 | 0.00 | 0.00 | 0.00 | 40 | 1012.2 |
| 20260906171511 | 35 | 254 | 0.0 | 6.4 | 0.00 | 0.00 | 0.00 | 44 | 1012.5 |
| 20260906170010 | 35 | 54 | 3.2 | 11.3 | 0.00 | 0.00 | 0.00 | 42 | 1012.7 |
| 20260906164509 | 35 | 331 | 4.8 | 9.7 | 0.00 | 0.00 | 0.00 | 43 | 1012.8 |
| 20260906163009 | 36 | 127 | 1.6 | 4.8 | 0.00 | 0.00 | 0.00 | 41 | 1012.9 |
| 20260906161513 | 35 | 169 | 1.6 | 6.4 | 0.00 | 0.00 | 0.00 | 44 | 1012.9 |
| 20260906160004 | 34 | 148 | 1.6 | 6.4 | 0.00 | 0.00 | 0.00 | 48 | 1012.9 |
| 20260906154601 | 33 | 289 | 1.6 | 4.8 | 0.00 | 0.00 | 0.00 | 52 | 1012.9 |
| 20260906153057 | 33 | 264 | 3.2 | 9.7 | 0.00 | 0.00 | 0.00 | 49 | 1012.7 |
| 20260906151556 | 32 | 255 | 0.0 | 6.4 | 0.00 | 0.00 | 0.00 | 54 | 1012.8 |
| 20260906150050 | 31 | 300 | 3.2 | 9.7 | 0.00 | 0.00 | 0.00 | 54 | 1012.7 |
| 20260906144550 | 31 | 260 | 3.2 | 9.7 | 0.00 | 0.00 | 0.00 | 55 | 1012.7 |
| 20260906143050 | 31 | 230 | 1.6 | 6.4 | 0.00 | 0.00 | 0.00 | 58 | 1012.6 |
| 20260906141543 | 30 | 247 | 0.0 | 6.4 | 0.00 | 0.00 | 0.00 | 61 | 1012.6 |
| 20260906140040 | 29 | 250 | 3.2 | 8.0 | 0.00 | 0.00 | 0.00 | 61 | 1012.6 |
| 20260906134537 | 28 | 136 | 1.6 | 8.0 | 0.00 | 0.00 | 0.00 | 65 | 1012.4 |
| 20260906133035 | 27 | 226 | 0.0 | 8.0 | 0.00 | 0.00 | 0.00 | 70 | 1012.3 |
| 20260906131542 | 25 | 231 | 0.0 | 4.8 | 0.00 | 0.00 | 0.00 | 71 | 1012.2 |
| 20260906130035 | 25 | 237 | 0.0 | 1.6 | 0.00 | 0.00 | 0.00 | 72 | 1012.1 |
| 20260906124531 | 25 | 238 | 0.0 | 3.2 | 0.00 | 0.00 | 0.00 | 71 | 1012.0 |
| 20260906123031 | 25 | 236 | 0.0 | 1.6 | 0.00 | 0.00 | 0.00 | 72 | 1011.8 |
| 20260906121527 | 23 | 203 | 0.0 | 0.0 | 0.00 | 0.00 | 0.00 | 73 | 1011.6 |
| 20260906120027 | 23 | 203 | 0.0 | 0.0 | 0.00 | 0.00 | 0.00 | 73 | 1011.5 |
| 20260906114526 | 24 | 203 | 0.0 | 0.0 | 0.00 | 0.00 | 0.00 | 72 | 1011.4 |
| 20260906113025 | 24 | 203 | 0.0 | 3.2 | 0.00 | 0.00 | 0.00 | 73 | 1011.3 |
| 20260906111523 | 24 | 207 | 0.0 | 1.6 | 0.00 | 0.00 | 0.00 | 72 | 1011.2 |
| 20260906110022 | 24 | 219 | 0.0 | 1.6 | 0.00 | 0.00 | 0.00 | 71 | 1011.1 |
| 20260906104533 | 24 | 171 | 0.0 | 1.6 | 0.00 | 0.00 | 0.00 | 71 | 1010.9 |
| 20260906103019 | 23 | 172 | 0.0 | 1.6 | 0.00 | 0.00 | 0.00 | 72 | 1010.8 |
| 20260906101518 | 23 | 160 | 0.0 | 0.0 | 0.00 | 0.00 | 0.00 | 73 | 1010.7 |
| 20260906100016 | 23 | 160 | 0.0 | 0.0 | 0.00 | 0.00 | 0.00 | 73 | 1010.7 |
| 20260906094533 | 23 | 160 | 0.0 | 0.0 | 0.00 | 0.00 | 0.00 | 74 | 1010.7 |
| 20260906093023 | 24 | 160 | 0.0 | 0.0 | 0.00 | 0.00 | 0.00 | 71 | 1010.7 |
| 20260906091513 | 24 | 160 | 0.0 | 0.0 | 0.00 | 0.00 | 0.00 | 71 | 1010.8 |
| 20260906090011 | 25 | 160 | 0.0 | 1.6 | 0.00 | 0.00 | 0.00 | 69 | 1010.6 |
| 20260906084510 | 25 | 160 | 1.6 | 1.6 | 0.00 | 0.00 | 0.00 | 68 | 1010.5 |
| 20260906083016 | 24 | 159 | 0.0 | 0.0 | 0.00 | 0.00 | 0.00 | 69 | 1010.5 |
| 20260906081511 | 25 | 159 | 0.0 | 3.2 | 0.00 | 0.00 | 0.00 | 69 | 1010.5 |
| 20260906080009 | 24 | 153 | 0.0 | 0.0 | 0.00 | 0.00 | 0.00 | 71 | 1010.5 |
| 20260906074508 | 24 | 153 | 0.0 | 3.2 | 0.00 | 0.00 | 0.00 | 70 | 1010.5 |
| 20260906073005 | 25 | 160 | 0.0 | 0.0 | 0.00 | 0.00 | 0.00 | 68 | 1010.4 |
| 20260906071504 | 25 | 160 | 0.0 | 0.0 | 0.00 | 0.00 | 0.00 | 68 | 1010.4 |
| 20260906070002 | 25 | 160 | 0.0 | 3.2 | 0.00 | 0.00 | 0.00 | 68 | 1010.5 |
| 20260906064503 | 25 | 160 | 0.0 | 0.0 | 0.00 | 0.00 | 0.00 | 68 | 1010.5 |
| 20260906063002 | 25 | 160 | 0.0 | 0.0 | 0.00 | 0.00 | 0.00 | 68 | 1010.4 |
| 20260906061600 | 25 | 160 | 0.0 | 0.0 | 0.00 | 0.00 | 0.00 | 67 | 1010.4 |
| 20260906060055 | 26 | 160 | 0.0 | 0.0 | 0.00 | 0.00 | 0.00 | 64 | 1010.5 |
| 20260906054552 | 26 | 160 | 0.0 | 1.6 | 0.00 | 0.00 | 0.00 | 63 | 1010.4 |
| 20260906053053 | 27 | 160 | 0.0 | 0.0 | 0.00 | 0.00 | 0.00 | 61 | 1010.2 |
| 20260906051545 | 27 | 160 | 0.0 | 0.0 | 0.00 | 0.00 | 0.00 | 59 | 1010.2 |
| 20260906050043 | 27 | 160 | 1.6 | 3.2 | 0.00 | 0.00 | 0.00 | 58 | 1010.2 |
| 20260906044543 | 28 | 158 | 0.0 | 3.2 | 0.00 | 0.00 | 0.00 | 57 | 1010.2 |
| 20260906043042 | 28 | 154 | 0.0 | 3.2 | 0.00 | 0.00 | 0.00 | 57 | 1010.4 |
| 20260906041541 | 27 | 172 | 1.6 | 8.0 | 0.00 | 0.00 | 0.00 | 59 | 1010.3 |
| 20260906040040 | 27 | 141 | 0.0 | 0.0 | 0.00 | 0.00 | 0.00 | 60 | 1010.2 |
| 20260906034545 | 27 | 141 | 0.0 | 0.0 | 0.00 | 0.00 | 0.00 | 59 | 1010.2 |
| 20260906033040 | 28 | 141 | 0.0 | 0.0 | 0.00 | 0.00 | 0.00 | 58 | 1010.1 |
| 20260906031538 | 28 | 141 | 0.0 | 0.0 | 0.00 | 0.00 | 0.00 | 57 | 1010.0 |
| 20260906030038 | 28 | 141 | 0.0 | 0.0 | 0.00 | 0.00 | 0.00 | 55 | 1010.0 |
| 20260906024544 | 29 | 141 | 0.0 | 0.0 | 0.00 | 0.00 | 0.00 | 53 | 1010.0 |
| 20260906023038 | 29 | 141 | 0.0 | 1.6 | 0.00 | 0.00 | 0.00 | 53 | 1009.9 |
| 20260906021537 | 30 | 141 | 0.0 | 1.6 | 0.00 | 0.00 | 0.00 | 52 | 1009.6 |
| 20260906020044 | 30 | 141 | 0.0 | 1.6 | 0.00 | 0.00 | 0.00 | 50 | 1009.5 |
| 20260906014549 | 31 | 141 | 0.0 | 1.6 | 0.00 | 0.00 | 0.00 | 48 | 1009.3 |
| 20260906013035 | 31 | 141 | 0.0 | 0.0 | 0.00 | 0.00 | 0.00 | 47 | 1009.0 |
| 20260906011539 | 32 | 141 | 0.0 | 0.0 | 0.00 | 0.00 | 0.00 | 44 | 1008.9 |
| 20260906010034 | 33 | 141 | 0.0 | 0.0 | 0.00 | 0.00 | 0.00 | 41 | 1008.8 |
| 20260906004538 | 34 | 141 | 0.0 | 1.6 | 0.00 | 0.00 | 0.00 | 39 | 1008.8 |
| 20260906003046 | 35 | 141 | 0.0 | 4.8 | 0.00 | 0.00 | 0.00 | 38 | 1008.6 |
| 20260906001532 | 36 | 136 | 1.6 | 6.4 | 0.00 | 0.00 | 0.00 | 36 | 1008.7 |
| 20260906000032 | 36 | 149 | 1.6 | 6.4 | 0.00 | 0.00 | 0.00 | 35 | 1008.5 |
| 20260905234632 | 36 | 96 | 3.2 | 9.7 | 0.00 | 0.00 | 0.00 | 35 | 1008.4 |
| 20260905233031 | 36 | 116 | 3.2 | 11.3 | 0.00 | 0.00 | 0.00 | 35 | 1008.3 |
| 20260905231536 | 36 | 169 | 6.4 | 16.1 | 0.00 | 0.00 | 0.00 | 35 | 1008.2 |
| 20260905230031 | 36 | 76 | 3.2 | 11.3 | 0.00 | 0.00 | 0.00 | 36 | 1008.2 |
| 20260905224533 | 37 | 184 | 3.2 | 16.1 | 0.00 | 0.00 | 0.00 | 34 | 1008.1 |
| 20260905223028 | 38 | 167 | 3.2 | 11.3 | 0.00 | 0.00 | 0.00 | 33 | 1008.0 |
| 20260905221526 | 37 | 124 | 4.8 | 12.9 | 0.00 | 0.00 | 0.00 | 34 | 1008.2 |
| 20260905220024 | 38 | 117 | 4.8 | 17.7 | 0.00 | 0.00 | 0.00 | 33 | 1008.3 |
| 20260905214521 | 37 | 226 | 1.6 | 16.1 | 0.00 | 0.00 | 0.00 | 34 | 1008.5 |
| 20260905213035 | 37 | 71 | 1.6 | 16.1 | 0.00 | 0.00 | 0.00 | 34 | 1008.7 |
| 20260905211517 | 37 | 169 | 3.2 | 12.9 | 0.00 | 0.00 | 0.00 | 35 | 1008.8 |
| 20260905210014 | 37 | 189 | 6.4 | 14.5 | 0.00 | 0.00 | 0.00 | 35 | 1009.0 |
| 20260905204517 | 36 | 219 | 1.6 | 19.3 | 0.00 | 0.00 | 0.00 | 37 | 1009.2 |
| 20260905203009 | 36 | 149 | 6.4 | 14.5 | 0.00 | 0.00 | 0.00 | 38 | 1009.5 |